createdAt,value
2018-08-13T00:01:06.731Z,22.00
2018-08-13T00:03:36.043Z,22.00
2018-08-13T00:06:04.396Z,21.90
2018-08-13T00:08:32.952Z,21.90
2018-08-13T00:11:01.424Z,21.90
2018-08-13T00:13:29.781Z,21.90
2018-08-13T00:15:58.190Z,21.90
2018-08-13T00:18:26.975Z,21.80
2018-08-13T00:20:55.429Z,21.80
2018-08-13T00:23:23.775Z,21.80
2018-08-13T00:25:52.773Z,21.80
2018-08-13T00:28:21.406Z,21.80
2018-08-13T00:30:49.767Z,21.80
2018-08-13T00:33:18.104Z,21.80
2018-08-13T00:35:46.459Z,21.80
2018-08-13T00:38:15.040Z,21.80
2018-08-13T00:40:43.550Z,21.80
2018-08-13T00:43:11.976Z,21.70
2018-08-13T00:45:40.372Z,21.70
2018-08-13T00:48:08.721Z,21.70
2018-08-13T00:50:37.127Z,21.70
2018-08-13T00:53:05.480Z,21.70
2018-08-13T00:55:33.923Z,21.70
2018-08-13T00:58:02.464Z,21.70
2018-08-13T01:00:30.827Z,21.70
2018-08-13T01:02:59.228Z,21.70
2018-08-13T01:05:27.805Z,21.70
2018-08-13T01:07:56.269Z,21.70
2018-08-13T01:10:24.667Z,21.70
2018-08-13T01:12:53.129Z,21.60
2018-08-13T01:15:21.883Z,21.60
2018-08-13T01:17:51.020Z,21.60
2018-08-13T01:20:20.980Z,21.60
2018-08-13T01:22:49.348Z,21.60
2018-08-13T01:25:18.920Z,21.60
2018-08-13T01:27:47.393Z,21.60
2018-08-13T01:30:17.255Z,21.60
2018-08-13T01:35:45.591Z,21.60
2018-08-13T01:38:14.150Z,21.60
2018-08-13T01:40:42.538Z,21.50
2018-08-13T01:43:10.921Z,21.60
2018-08-13T01:45:39.276Z,21.50
2018-08-13T01:48:07.671Z,21.50
2018-08-13T01:50:36.177Z,21.50
2018-08-13T01:53:04.990Z,21.50
2018-08-13T01:55:33.444Z,21.50
2018-08-13T01:58:02.131Z,21.50
2018-08-13T02:00:30.508Z,21.40
2018-08-13T02:02:59.268Z,21.40
2018-08-13T02:05:27.765Z,21.40
2018-08-13T02:07:56.224Z,21.40
2018-08-13T02:10:24.710Z,21.40
2018-08-13T02:12:53.067Z,21.40
2018-08-13T02:15:22.074Z,21.30
2018-08-13T02:17:50.582Z,21.30
2018-08-13T02:20:18.912Z,21.30
2018-08-13T02:22:47.249Z,21.30
2018-08-13T02:25:15.689Z,21.20
2018-08-13T02:27:44.116Z,21.20
2018-08-13T02:30:12.698Z,21.20
2018-08-13T02:32:41.160Z,21.20
2018-08-13T02:35:10.227Z,21.20
2018-08-13T02:37:39.408Z,21.10
2018-08-13T02:40:08.848Z,21.10
2018-08-13T02:42:37.291Z,21.10
2018-08-13T02:45:07.755Z,21.10
2018-08-13T02:47:36.417Z,21.10
2018-08-13T02:50:06.232Z,21.10
2018-08-13T02:52:34.700Z,21.00
2018-08-13T02:55:03.179Z,21.00
2018-08-13T02:57:31.739Z,21.10
2018-08-13T03:00:00.732Z,21.00
2018-08-13T03:02:29.129Z,21.00
2018-08-13T03:04:57.836Z,21.00
2018-08-13T03:07:26.740Z,21.00
2018-08-13T03:09:55.291Z,21.00
2018-08-13T03:12:23.817Z,21.00
2018-08-13T03:14:52.225Z,21.00
2018-08-13T03:17:27.535Z,21.00
2018-08-13T03:19:55.936Z,20.90
2018-08-13T03:22:24.305Z,20.90
2018-08-13T03:24:53.001Z,20.90
2018-08-13T03:27:21.563Z,20.90
2018-08-13T03:29:50.187Z,20.90
2018-08-13T03:32:19.214Z,20.90
2018-08-13T03:34:47.701Z,20.90
2018-08-13T03:37:16.183Z,20.90
2018-08-13T03:39:44.604Z,20.80
2018-08-13T03:42:16.620Z,20.80
2018-08-13T03:44:45.074Z,20.80
2018-08-13T03:47:13.723Z,20.80
2018-08-13T03:49:42.144Z,20.80
2018-08-13T03:52:11.378Z,20.80
2018-08-13T03:54:39.797Z,20.80
2018-08-13T03:57:08.278Z,20.80
2018-08-13T03:59:36.768Z,20.80
2018-08-13T04:02:05.347Z,20.80
2018-08-13T04:04:33.981Z,20.70
2018-08-13T04:07:02.758Z,20.70
2018-08-13T04:09:31.244Z,20.80
2018-08-13T04:11:59.905Z,20.70
2018-08-13T04:14:28.483Z,20.80
2018-08-13T04:17:01.259Z,20.70
2018-08-13T04:19:30.999Z,20.70
2018-08-13T04:22:00.062Z,20.70
2018-08-13T04:24:28.536Z,20.70
2018-08-13T04:26:57.888Z,20.70
2018-08-13T04:29:26.379Z,20.70
2018-08-13T04:31:55.081Z,20.70
2018-08-13T04:34:23.602Z,20.70
2018-08-13T04:36:51.964Z,20.70
2018-08-13T04:39:20.873Z,20.70
2018-08-13T04:41:49.295Z,20.70
2018-08-13T04:44:17.742Z,20.60
2018-08-13T04:46:46.385Z,20.60
2018-08-13T04:49:20.483Z,20.60
2018-08-13T04:51:49.178Z,20.60
2018-08-13T04:54:17.909Z,20.60
2018-08-13T04:56:46.460Z,20.60
2018-08-13T04:59:15.252Z,20.60
2018-08-13T05:01:43.633Z,20.60
2018-08-13T05:04:12.164Z,20.60
2018-08-13T05:06:40.765Z,20.70
2018-08-13T05:09:10.034Z,20.70
2018-08-13T05:11:39.230Z,20.70
2018-08-13T05:14:07.791Z,20.70
2018-08-13T05:16:36.666Z,20.70
2018-08-13T05:19:05.336Z,20.80
2018-08-13T05:21:34.506Z,20.80
2018-08-13T05:24:03.238Z,20.80
2018-08-13T05:26:31.729Z,20.80
2018-08-13T05:29:00.173Z,20.90
2018-08-13T05:31:28.579Z,20.90
2018-08-13T05:33:57.003Z,20.90
2018-08-13T05:36:25.493Z,21.00
2018-08-13T05:38:54.005Z,21.00
2018-08-13T05:41:22.600Z,21.00
2018-08-13T05:43:51.163Z,21.00
2018-08-13T05:46:20.323Z,21.00
2018-08-13T05:48:48.747Z,21.00
2018-08-13T05:51:17.191Z,21.00
2018-08-13T05:53:48.500Z,21.00
2018-08-13T05:56:16.879Z,21.00
2018-08-13T05:58:45.504Z,21.00
2018-08-13T06:01:13.928Z,21.10
2018-08-13T06:03:42.285Z,21.10
2018-08-13T06:06:10.718Z,21.10
2018-08-13T06:08:39.141Z,21.10
2018-08-13T06:11:07.742Z,21.20
2018-08-13T06:13:36.305Z,21.20
2018-08-13T06:16:04.741Z,21.20
2018-08-13T06:18:33.197Z,21.00
2018-08-13T06:21:01.661Z,21.10
2018-08-13T06:23:30.391Z,21.20
2018-08-13T06:25:59.084Z,21.20
2018-08-13T06:28:27.579Z,21.20
2018-08-13T06:30:56.159Z,21.20
2018-08-13T06:33:24.954Z,21.20
2018-08-13T06:35:53.531Z,21.30
2018-08-13T06:38:26.708Z,21.40
2018-08-13T06:40:55.194Z,21.30
2018-08-13T06:43:23.621Z,21.40
2018-08-13T06:45:52.269Z,21.50
2018-08-13T06:48:21.238Z,21.60
2018-08-13T06:50:50.048Z,21.60
2018-08-13T06:53:18.481Z,21.50
2018-08-13T06:55:46.973Z,21.60
2018-08-13T06:58:15.356Z,21.80
2018-08-13T07:00:43.841Z,21.80
2018-08-13T07:03:12.257Z,22.00
2018-08-13T07:05:40.768Z,22.00
2018-08-13T07:08:09.154Z,22.00
2018-08-13T07:10:37.576Z,22.10
2018-08-13T07:13:06.000Z,22.10
2018-08-13T07:15:34.623Z,21.90
2018-08-13T07:18:03.018Z,22.00
2018-08-13T07:20:31.396Z,21.90
2018-08-13T07:22:59.823Z,21.90
2018-08-13T07:25:28.276Z,22.00
2018-08-13T07:30:31.330Z,22.10
2018-08-13T07:32:59.648Z,22.20
2018-08-13T07:35:27.976Z,22.30
2018-08-13T07:37:56.288Z,22.30
2018-08-13T07:40:24.622Z,22.20
2018-08-13T07:42:52.894Z,22.20
2018-08-13T07:45:21.197Z,22.30
2018-08-13T07:47:49.494Z,22.40
2018-08-13T07:50:17.789Z,22.50
2018-08-13T07:52:46.112Z,22.50
2018-08-13T07:55:14.405Z,22.50
2018-08-13T07:57:42.742Z,22.50
2018-08-13T08:00:13.448Z,22.50
2018-08-13T08:02:41.800Z,22.60
2018-08-13T08:05:10.129Z,22.60
2018-08-13T08:07:38.443Z,22.60
2018-08-13T08:10:09.000Z,22.60
2018-08-13T08:12:37.264Z,22.60
2018-08-13T08:15:09.628Z,22.40
2018-08-13T08:17:37.979Z,22.20
2018-08-13T08:20:06.410Z,22.20
2018-08-13T08:22:37.297Z,22.10
2018-08-13T08:25:08.255Z,21.90
2018-08-13T08:27:36.668Z,22.20
2018-08-13T08:30:06.077Z,22.30
2018-08-13T08:32:34.560Z,22.30
2018-08-13T08:35:02.849Z,22.20
2018-08-13T08:37:31.263Z,22.10
2018-08-13T08:39:59.622Z,22.20
2018-08-13T08:42:28.097Z,22.30
2018-08-13T08:44:56.520Z,22.40
2018-08-13T08:47:24.837Z,22.40
2018-08-13T08:49:53.129Z,22.50
2018-08-13T08:52:21.705Z,22.40
2018-08-13T08:54:50.033Z,22.40
2018-08-13T08:57:18.321Z,22.50
2018-08-13T08:59:46.652Z,22.50
2018-08-13T09:02:15.016Z,22.30
2018-08-13T09:04:43.322Z,22.30
2018-08-13T09:07:11.580Z,22.50
2018-08-13T09:09:40.065Z,22.60
2018-08-13T09:12:08.395Z,22.50
2018-08-13T09:14:36.665Z,22.30
2018-08-13T09:17:05.272Z,22.40
2018-08-13T09:19:45.071Z,22.50
2018-08-13T09:22:25.095Z,22.40
2018-08-13T09:26:06.411Z,22.40
2018-08-13T09:28:46.123Z,22.30
2018-08-13T09:31:29.678Z,22.40
2018-08-13T09:34:09.690Z,22.40
2018-08-13T09:36:38.081Z,22.40
2018-08-13T09:39:08.052Z,22.50
2018-08-13T09:41:36.345Z,22.70
2018-08-13T09:44:04.801Z,23.00
2018-08-13T09:46:33.138Z,23.10
2018-08-13T09:49:01.448Z,23.00
2018-08-13T09:51:29.740Z,23.20
2018-08-13T09:53:58.038Z,23.30
2018-08-13T09:56:26.331Z,23.20
2018-08-13T09:58:54.748Z,23.30
2018-08-13T10:01:23.008Z,23.00
2018-08-13T10:03:51.285Z,23.10
2018-08-13T10:06:19.585Z,23.20
2018-08-13T10:08:47.913Z,23.30
2018-08-13T10:11:16.207Z,23.50
2018-08-13T10:13:44.485Z,23.60
2018-08-13T10:16:12.742Z,23.70
2018-08-13T10:18:41.017Z,23.90
2018-08-13T10:21:09.317Z,24.20
2018-08-13T10:23:37.671Z,24.10
2018-08-13T10:26:06.001Z,24.10
2018-08-13T10:28:34.327Z,23.90
2018-08-13T10:31:02.625Z,23.90
2018-08-13T10:33:30.872Z,24.00
2018-08-13T10:35:59.255Z,23.90
2018-08-13T10:38:27.545Z,23.80
2018-08-13T10:40:55.860Z,23.80
2018-08-13T10:43:24.222Z,23.60
2018-08-13T10:45:52.444Z,23.20
2018-08-13T10:48:20.740Z,23.00
2018-08-13T10:50:49.200Z,23.00
2018-08-13T10:53:17.492Z,23.10
2018-08-13T10:55:46.320Z,23.00
2018-08-13T10:58:14.999Z,23.10
2018-08-13T11:00:43.256Z,23.40
2018-08-13T11:03:11.604Z,23.50
2018-08-13T11:05:39.888Z,23.50
2018-08-13T11:08:08.205Z,23.50
2018-08-13T11:10:36.583Z,23.50
2018-08-13T11:13:04.929Z,23.40
2018-08-13T11:15:33.294Z,23.30
2018-08-13T11:18:01.648Z,23.30
2018-08-13T11:20:29.997Z,23.40
2018-08-13T11:22:58.267Z,23.40
2018-08-13T11:25:26.658Z,23.30
2018-08-13T11:27:54.884Z,23.30
2018-08-13T11:30:23.776Z,22.50
2018-08-13T11:32:52.371Z,22.00
2018-08-13T11:35:20.688Z,22.10
2018-08-13T11:37:49.140Z,21.90
2018-08-13T11:40:18.281Z,22.00
2018-08-13T11:42:46.805Z,21.80
2018-08-13T11:45:15.163Z,21.60
2018-08-13T11:47:43.694Z,21.30
2018-08-13T11:50:18.540Z,21.20
2018-08-13T11:52:48.354Z,21.10
2018-08-13T11:55:17.501Z,20.90
2018-08-13T11:57:46.395Z,20.90
2018-08-13T12:00:14.989Z,20.70
2018-08-13T12:02:43.431Z,20.70
2018-08-13T12:05:13.416Z,20.80
2018-08-13T12:07:42.199Z,20.70
2018-08-13T12:10:11.496Z,20.90
2018-08-13T12:12:40.913Z,21.10
2018-08-13T12:15:10.529Z,21.10
2018-08-13T12:17:39.148Z,21.30
2018-08-13T12:20:17.297Z,21.50
2018-08-13T12:22:46.169Z,21.40
2018-08-13T12:25:23.333Z,21.60
2018-08-13T12:27:51.913Z,21.80
2018-08-13T12:30:20.357Z,21.70
2018-08-13T12:32:49.710Z,21.80
2018-08-13T12:35:18.631Z,21.90
2018-08-13T12:37:46.972Z,21.90
2018-08-13T12:40:15.396Z,21.90
2018-08-13T12:42:43.734Z,21.90
2018-08-13T12:45:14.372Z,21.80
2018-08-13T12:47:42.905Z,21.90
2018-08-13T12:50:13.528Z,22.00
2018-08-13T12:52:43.113Z,22.20
2018-08-13T12:55:11.908Z,22.30
2018-08-13T12:57:40.345Z,22.30
2018-08-13T13:00:10.857Z,22.50
2018-08-13T13:02:39.875Z,22.80
2018-08-13T13:05:09.576Z,22.80
2018-08-13T13:07:38.059Z,23.00
2018-08-13T13:10:08.553Z,23.10
2018-08-13T13:12:36.985Z,23.40
2018-08-13T13:15:07.337Z,23.20
2018-08-13T13:17:36.241Z,23.10
2018-08-13T13:20:05.839Z,22.80
2018-08-13T13:22:34.217Z,22.80
2018-08-13T13:25:02.831Z,22.60
2018-08-13T13:27:31.336Z,22.50
2018-08-13T13:29:59.652Z,22.70
2018-08-13T13:32:27.960Z,22.70
2018-08-13T13:34:56.416Z,23.10
2018-08-13T13:37:24.736Z,23.30
2018-08-13T13:39:53.652Z,23.20
2018-08-13T13:42:22.193Z,23.40
2018-08-13T13:44:50.568Z,23.30
2018-08-13T13:47:18.943Z,23.00
2018-08-13T13:49:47.312Z,23.10
2018-08-13T13:52:15.874Z,23.50
2018-08-13T13:54:44.184Z,23.30
2018-08-13T13:57:12.572Z,23.00
2018-08-13T13:59:40.969Z,22.90
2018-08-13T14:02:09.309Z,22.60
2018-08-13T14:04:37.728Z,22.60
2018-08-13T14:07:06.365Z,22.50
2018-08-13T14:09:34.732Z,22.20
2018-08-13T14:12:03.213Z,22.30
2018-08-13T14:14:31.613Z,22.40
2018-08-13T14:17:00.004Z,22.40
2018-08-13T14:19:28.329Z,22.60
2018-08-13T14:21:56.836Z,22.80
2018-08-13T14:24:25.692Z,22.80
2018-08-13T14:26:54.385Z,22.80
2018-08-13T14:29:22.736Z,22.90
2018-08-13T14:31:51.173Z,23.00
2018-08-13T14:34:19.902Z,22.80
2018-08-13T14:39:51.878Z,22.40
2018-08-13T14:42:20.230Z,22.30
2018-08-13T14:44:48.569Z,22.40
2018-08-13T14:47:16.896Z,22.60
2018-08-13T14:49:45.340Z,22.70
2018-08-13T14:52:13.644Z,22.90
2018-08-13T14:54:42.330Z,23.10
2018-08-13T14:57:10.728Z,23.30
2018-08-13T14:59:39.081Z,23.00
2018-08-13T15:02:07.524Z,23.10
2018-08-13T15:04:35.911Z,23.00
2018-08-13T15:07:04.340Z,23.00
2018-08-13T15:09:32.674Z,22.70
2018-08-13T15:12:01.104Z,22.50
2018-08-13T15:14:29.605Z,22.60
2018-08-13T15:16:57.984Z,22.40
2018-08-13T15:19:26.351Z,22.50
2018-08-13T15:21:54.692Z,22.50
2018-08-13T15:24:23.037Z,22.60
2018-08-13T15:26:51.364Z,22.80
2018-08-13T15:29:19.696Z,22.90
2018-08-13T15:31:48.663Z,23.10
2018-08-13T15:34:17.032Z,23.30
2018-08-13T15:36:45.366Z,23.20
2018-08-13T15:39:14.328Z,23.20
2018-08-13T15:41:42.997Z,23.30
2018-08-13T15:44:11.269Z,23.30
2018-08-13T15:46:39.565Z,23.40
2018-08-13T15:49:08.111Z,23.40
2018-08-13T15:51:36.376Z,23.30
2018-08-13T15:54:04.649Z,23.30
2018-08-13T15:56:32.920Z,23.00
2018-08-13T15:59:01.207Z,22.90
2018-08-13T16:01:29.567Z,22.90
2018-08-13T16:03:58.418Z,22.80
2018-08-13T16:06:26.992Z,22.70
2018-08-13T16:08:55.269Z,22.70
2018-08-13T16:11:23.668Z,22.70
2018-08-13T16:13:52.116Z,22.70
2018-08-13T16:16:20.621Z,22.80
2018-08-13T16:18:49.183Z,22.90
2018-08-13T16:21:17.764Z,22.90
2018-08-13T16:23:46.248Z,22.90
2018-08-13T16:26:14.681Z,22.70
2018-08-13T16:28:42.966Z,22.50
2018-08-13T16:31:11.257Z,22.40
2018-08-13T16:33:39.528Z,22.40
2018-08-13T16:36:07.957Z,22.30
2018-08-13T16:38:36.239Z,22.30
2018-08-13T16:41:04.568Z,22.10
2018-08-13T16:43:32.961Z,22.30
2018-08-13T16:46:01.241Z,22.40
2018-08-13T16:48:29.524Z,22.40
2018-08-13T16:50:57.934Z,22.40
2018-08-13T16:53:26.278Z,22.20
2018-08-13T16:55:54.971Z,22.10
2018-08-13T16:58:23.297Z,22.10
2018-08-13T17:00:51.673Z,22.10
2018-08-13T17:03:20.017Z,22.20
2018-08-13T17:05:48.346Z,22.20
2018-08-13T17:08:17.043Z,22.30
2018-08-13T17:10:45.291Z,22.20
2018-08-13T17:13:13.578Z,22.20
2018-08-13T17:15:42.356Z,22.00
2018-08-13T17:18:10.798Z,21.80
2018-08-13T17:20:41.028Z,21.70
2018-08-13T17:23:11.341Z,21.50
2018-08-13T17:25:39.740Z,21.60
2018-08-13T17:28:08.092Z,21.60
2018-08-13T17:30:36.444Z,21.50
2018-08-13T17:33:04.900Z,21.50
2018-08-13T17:35:34.566Z,21.50
2018-08-13T17:38:04.429Z,21.40
2018-08-13T17:40:32.879Z,21.40
2018-08-13T17:43:01.664Z,21.50
2018-08-13T17:45:30.614Z,21.40
2018-08-13T17:47:58.981Z,21.40
2018-08-13T17:50:27.680Z,21.20
2018-08-13T17:52:57.069Z,21.30
2018-08-13T17:55:25.505Z,21.10
2018-08-13T17:57:53.912Z,21.00
2018-08-13T18:00:23.964Z,21.10
2018-08-13T18:02:52.360Z,21.10
2018-08-13T18:05:22.597Z,21.20
2018-08-13T18:07:51.356Z,21.20
2018-08-13T18:10:25.360Z,21.20
2018-08-13T18:12:53.975Z,21.10
2018-08-13T18:15:22.489Z,21.10
2018-08-13T18:17:51.068Z,21.00
2018-08-13T18:20:19.808Z,20.90
2018-08-13T18:22:48.334Z,21.00
2018-08-13T18:25:17.015Z,21.00
2018-08-13T18:27:47.684Z,21.10
2018-08-13T18:30:20.105Z,20.90
2018-08-13T18:32:49.012Z,21.00
2018-08-13T18:35:17.480Z,21.00
2018-08-13T18:37:46.068Z,21.00
2018-08-13T18:40:19.744Z,20.80
2018-08-13T18:42:48.315Z,20.80
2018-08-13T18:45:16.939Z,20.90
2018-08-13T18:47:45.555Z,20.80
2018-08-13T18:50:16.251Z,20.70
2018-08-13T18:52:46.132Z,20.70
2018-08-13T18:55:18.902Z,20.70
2018-08-13T18:57:47.759Z,20.70
2018-08-13T19:00:17.966Z,20.70
2018-08-13T19:02:46.468Z,20.70
2018-08-13T19:05:17.668Z,20.80
2018-08-13T19:07:46.745Z,20.70
2018-08-13T19:10:16.122Z,20.50
2018-08-13T19:12:45.137Z,20.50
2018-08-13T19:15:21.797Z,20.60
2018-08-13T19:17:51.277Z,20.60
2018-08-13T19:20:19.852Z,20.60
2018-08-13T19:22:48.497Z,20.60
2018-08-13T19:25:20.515Z,20.60
2018-08-13T19:27:48.919Z,20.60
2018-08-13T19:30:18.405Z,20.70
2018-08-13T19:32:47.725Z,20.70
2018-08-13T19:35:16.181Z,20.70
2018-08-13T19:37:45.024Z,20.70
2018-08-13T19:40:15.372Z,20.70
2018-08-13T19:42:45.391Z,20.80
2018-08-13T19:45:14.882Z,20.80
2018-08-13T19:47:43.721Z,20.80
2018-08-13T19:50:12.700Z,20.80
2018-08-13T19:52:43.519Z,20.80
2018-08-13T19:55:12.500Z,20.80
2018-08-13T19:57:41.151Z,20.80
2018-08-13T20:00:12.362Z,20.80
2018-08-13T20:02:40.799Z,20.80
2018-08-13T20:05:09.829Z,20.80
2018-08-13T20:07:38.809Z,20.80
2018-08-13T20:10:09.070Z,20.80
2018-08-13T20:12:37.516Z,20.80
2018-08-13T20:15:06.079Z,20.70
2018-08-13T20:17:34.541Z,20.60
2018-08-13T20:20:02.904Z,20.70
2018-08-13T20:22:31.320Z,20.80
2018-08-13T20:24:59.720Z,20.70
2018-08-13T20:27:28.517Z,20.70
2018-08-13T20:29:57.573Z,20.80
2018-08-13T20:32:25.974Z,20.70
2018-08-13T20:34:54.509Z,20.60
2018-08-13T20:37:23.415Z,20.70
2018-08-13T20:39:51.800Z,20.60
2018-08-13T20:42:20.227Z,20.70
2018-08-13T20:44:48.848Z,20.70
2018-08-13T20:47:17.702Z,20.70
2018-08-13T20:49:46.152Z,20.70
2018-08-13T20:52:14.699Z,20.70
2018-08-13T20:54:43.332Z,20.60
2018-08-13T20:57:11.657Z,20.50
2018-08-13T20:59:40.173Z,20.60
2018-08-13T21:02:08.924Z,20.60
2018-08-13T21:04:37.372Z,20.60
2018-08-13T21:07:06.488Z,20.60
2018-08-13T21:09:35.284Z,20.60
2018-08-13T21:12:05.842Z,20.60
2018-08-13T21:14:34.500Z,20.70
2018-08-13T21:17:03.061Z,20.60
2018-08-13T21:19:31.558Z,20.70
2018-08-13T21:22:00.327Z,20.70
2018-08-13T21:24:29.400Z,20.60
2018-08-13T21:26:57.891Z,20.60
2018-08-13T21:29:26.477Z,20.50
2018-08-13T21:31:55.166Z,20.60
2018-08-13T21:34:23.703Z,20.50
2018-08-13T21:36:52.431Z,20.50
2018-08-13T21:39:20.763Z,20.60
2018-08-13T21:41:49.323Z,20.60
2018-08-13T21:44:18.078Z,20.60
2018-08-13T21:46:46.586Z,20.60
2018-08-13T21:49:15.169Z,20.60
2018-08-13T21:51:44.208Z,20.70
2018-08-13T21:54:12.932Z,20.60
2018-08-13T21:56:41.315Z,20.70
2018-08-13T21:59:09.788Z,20.70
2018-08-13T22:01:44.049Z,20.70
2018-08-13T22:04:12.620Z,20.60
2018-08-13T22:06:41.104Z,20.70
2018-08-13T22:09:10.243Z,20.70
2018-08-13T22:11:38.776Z,20.70
2018-08-13T22:14:07.683Z,20.70
2018-08-13T22:16:36.272Z,20.80
2018-08-13T22:19:04.861Z,20.80
2018-08-13T22:21:33.341Z,20.80
2018-08-13T22:24:12.927Z,20.80
2018-08-13T22:26:41.403Z,20.70
2018-08-13T22:29:09.852Z,20.70
2018-08-13T22:31:38.469Z,20.70
2018-08-13T22:34:08.077Z,20.70
2018-08-13T22:36:36.775Z,20.70
2018-08-13T22:39:07.198Z,20.70
2018-08-13T22:41:35.797Z,20.70
2018-08-13T22:44:04.897Z,20.70
2018-08-13T22:46:33.515Z,20.70
2018-08-13T22:49:01.955Z,20.70
2018-08-13T22:51:30.554Z,20.70
2018-08-13T22:53:58.961Z,20.70
2018-08-13T22:56:27.528Z,20.60
2018-08-13T22:58:55.962Z,20.60
2018-08-13T23:01:24.530Z,20.70
2018-08-13T23:03:53.210Z,20.60
2018-08-13T23:06:21.789Z,20.60
2018-08-13T23:08:50.299Z,20.60
2018-08-13T23:11:18.880Z,20.70
2018-08-13T23:13:47.332Z,20.60
2018-08-13T23:16:15.682Z,20.50
2018-08-13T23:18:44.376Z,20.60
2018-08-13T23:21:12.995Z,20.60
2018-08-13T23:23:42.063Z,20.60
2018-08-13T23:26:11.123Z,20.60
2018-08-13T23:28:39.621Z,20.60
2018-08-13T23:31:07.989Z,20.60
2018-08-13T23:33:36.482Z,20.70
2018-08-13T23:36:04.972Z,20.70
2018-08-13T23:38:33.269Z,20.80
2018-08-13T23:41:01.638Z,20.80
2018-08-13T23:43:30.203Z,20.80
2018-08-13T23:45:58.709Z,20.70
2018-08-13T23:48:27.463Z,20.70
2018-08-13T23:50:55.894Z,20.70
2018-08-13T23:53:24.369Z,20.60
2018-08-13T23:55:53.466Z,20.70
2018-08-13T23:58:21.913Z,20.60
